Terminal Aerodrome Forecast
Issued by NWS

Home | Current Version | Previous Version | Text Only | Print | Product List | Glossary On
Versions: 1 2 3 4 5 6 7 8 9 10 11 12 13 14 15 16 17 18 19
000
FTUS46 KSEW 271800 AAA
TAFBLI
TAF AMD
KBLI 271801Z 2718/2818 18006KT P6SM BKN150
     FM272200 18010KT P6SM BKN040 BKN120
     FM280300 18012KT P6SM -RA BKN020 OVC040
     FM281200 21012KT P6SM -SHRA BKN015 BKN030
     FM281700 23007KT P6SM VCSH BKN025 BKN050=

USA.gov is the U.S. government's official web portal to all federal, state and local government web resources and services.